Time;durP1;ratioP1;P1;durP2;ratioP2;P2;SDS_P1;SDS_P2;PMS_P1;PMS_P2;Temp;Humidity;BMP_temperature;BMP_pressure;BME280_temperature;BME280_humidity;BME280_pressure;Samples;Min_cycle;Max_cycle;Signal;HPM_P1;HPM_P2
2023/01/17 00:15:46;;;;;;;3.22;0.85;;;3.70;99.90;;;;;;20474929;28;20353;-42
2023/01/17 00:26:03;;;;;;;0.40;0.05;;;3.50;97.10;;;;;;20466436;28;20043;-42
2023/01/17 03:07:15;;;;;;;1.27;1.00;;;2.20;99.90;;;;;;20400284;28;21219;-42
2023/01/17 03:17:16;;;;;;;2.53;1.08;;;2.10;99.90;;;;;;20463557;28;20094;-43
2023/01/17 03:27:17;;;;;;;0.65;0.22;;;2.00;99.90;;;;;;20461806;28;20750;-43
2023/01/17 03:37:18;;;;;;;0.95;0.55;;;1.90;99.90;;;;;;20458833;28;20136;-42
2023/01/17 03:47:19;;;;;;;0.73;0.20;;;1.90;99.90;;;;;;20460286;28;20627;-43
2023/01/17 03:57:20;;;;;;;1.92;0.70;;;1.90;99.90;;;;;;20452221;28;20132;-43
2023/01/17 04:07:21;;;;;;;1.20;0.45;;;1.90;99.90;;;;;;20453316;28;20081;-43
2023/01/17 04:17:23;;;;;;;2.55;0.65;;;1.90;99.90;;;;;;20454066;28;20066;-43
2023/01/17 04:27:24;;;;;;;0.82;0.38;;;2.00;99.90;;;;;;20455842;28;20142;-43
2023/01/17 04:37:25;;;;;;;4.78;0.77;;;2.00;99.90;;;;;;20452933;28;20314;-43
2023/01/17 04:47:26;;;;;;;0.57;0.25;;;1.90;99.90;;;;;;20453071;28;20071;-43
2023/01/17 04:57:27;;;;;;;3.67;0.40;;;1.80;99.90;;;;;;20460082;28;20570;-42
2023/01/17 05:07:28;;;;;;;1.20;0.40;;;1.70;99.90;;;;;;20448258;28;20443;-43
2023/01/17 05:17:29;;;;;;;2.53;0.65;;;1.70;99.90;;;;;;20453942;28;20164;-43
2023/01/17 05:27:30;;;;;;;7.30;0.82;;;1.60;99.90;;;;;;20453260;28;20039;-43
2023/01/17 05:37:31;;;;;;;0.52;0.30;;;1.70;99.90;;;;;;20456845;28;20039;-43
2023/01/17 05:47:32;;;;;;;4.80;1.40;;;1.60;99.90;;;;;;20460657;28;20420;-43
2023/01/17 05:57:34;;;;;;;3.58;0.90;;;1.60;99.90;;;;;;20466362;28;20067;-43
2023/01/17 06:07:35;;;;;;;3.50;0.73;;;1.60;99.90;;;;;;20458435;28;20484;-43
2023/01/17 06:17:36;;;;;;;1.10;0.40;;;1.60;99.90;;;;;;20460105;28;20055;-43
2023/01/17 06:27:37;;;;;;;2.53;0.45;;;1.50;99.90;;;;;;20459176;28;20203;-43
2023/01/17 06:37:38;;;;;;;4.00;0.55;;;1.40;99.90;;;;;;20468269;28;20043;-44
2023/01/17 06:47:39;;;;;;;1.70;0.52;;;1.30;99.90;;;;;;20469188;28;20999;-43
2023/01/17 06:57:40;;;;;;;1.08;0.30;;;1.20;99.90;;;;;;20475409;28;20085;-43
2023/01/17 07:07:42;;;;;;;2.78;1.08;;;1.20;99.90;;;;;;20467068;28;20038;-43
2023/01/17 07:17:43;;;;;;;1.92;1.20;;;1.20;99.90;;;;;;20466740;28;20423;-43
2023/01/17 07:27:45;;;;;;;1.65;0.60;;;1.10;99.90;;;;;;20459262;28;20190;-43
2023/01/17 07:37:49;;;;;;;2.00;0.80;;;1.10;99.90;;;;;;20456271;28;20542;-43
2023/01/17 07:47:50;;;;;;;1.15;0.45;;;1.00;99.90;;;;;;20466364;28;20136;-43
2023/01/17 07:57:51;;;;;;;1.20;0.60;;;1.00;99.90;;;;;;20483931;28;20059;-43
2023/01/17 08:07:53;;;;;;;1.95;0.93;;;1.10;99.90;;;;;;20478773;28;20095;-43
2023/01/17 08:17:56;;;;;;;1.92;0.60;;;1.10;99.90;;;;;;20478606;28;20160;-43
2023/01/17 08:27:57;;;;;;;2.45;0.93;;;1.20;91.70;;;;;;20478882;28;20063;-43
2023/01/17 08:38:03;;;;;;;5.85;0.73;;;1.30;86.90;;;;;;20475321;28;20149;-44
2023/01/17 08:48:04;;;;;;;4.13;0.60;;;1.30;83.00;;;;;;20474563;28;20125;-44
2023/01/17 08:58:06;;;;;;;2.20;0.90;;;1.30;83.90;;;;;;20474333;28;20539;-44
2023/01/17 09:08:07;;;;;;;2.38;1.35;;;1.30;85.70;;;;;;20474091;28;20066;-44
2023/01/17 09:18:08;;;;;;;7.85;3.45;;;1.40;84.30;;;;;;20471607;28;20510;-44
2023/01/17 09:28:09;;;;;;;3.42;0.80;;;1.70;86.00;;;;;;20479873;28;22391;-44
2023/01/17 09:38:11;;;;;;;2.00;0.80;;;1.90;77.20;;;;;;20478558;28;20125;-44
2023/01/17 09:48:20;;;;;;;2.45;0.70;;;2.20;71.70;;;;;;20474516;28;20078;-44
2023/01/17 09:58:39;;;;;;;3.35;1.35;;;2.20;64.70;;;;;;20479439;28;20525;-44
2023/01/17 10:08:58;;;;;;;2.08;1.13;;;2.40;63.40;;;;;;20479099;28;20289;-44
2023/01/17 10:19:08;;;;;;;2.60;1.02;;;2.60;61.70;;;;;;20478802;28;20075;-44
2023/01/17 10:29:15;;;;;;;2.00;1.02;;;2.70;59.80;;;;;;20482696;28;20173;-44
2023/01/17 10:39:24;;;;;;;3.10;1.35;;;2.60;56.00;;;;;;20488028;28;20195;-44
2023/01/17 10:49:27;;;;;;;4.65;1.38;;;2.70;57.70;;;;;;20484999;28;20447;-44
2023/01/17 10:59:33;;;;;;;4.55;1.50;;;2.90;60.10;;;;;;20489555;28;20815;-43
2023/01/17 11:09:40;;;;;;;3.40;1.33;;;2.60;59.90;;;;;;20483380;28;20047;-43
2023/01/17 11:19:44;;;;;;;5.17;1.73;;;2.90;63.50;;;;;;20479144;28;20709;-43
2023/01/17 11:29:46;;;;;;;3.63;1.20;;;3.30;60.20;;;;;;20475392;28;20043;-43
2023/01/17 11:39:47;;;;;;;5.75;1.83;;;4.10;56.10;;;;;;20475686;28;20548;-43
2023/01/17 11:49:48;;;;;;;2.60;1.35;;;5.20;50.40;;;;;;20474466;28;20039;-44
2023/01/17 11:59:56;;;;;;;1.17;0.40;;;5.90;40.10;;;;;;20482388;28;20758;-43
2023/01/17 12:10:06;;;;;;;;;;;6.60;38.90;;;;;;20466751;28;20133;-43
2023/01/17 12:20:26;;;;;;;1.52;0.70;;;6.80;28.50;;;;;;20470749;28;20024;-43
2023/01/17 12:30:45;;;;;;;2.05;0.85;;;6.70;29.50;;;;;;20466543;28;20707;-44
2023/01/17 12:40:50;;;;;;;1.15;0.30;;;7.50;25.00;;;;;;20464888;28;20859;-43
2023/01/17 12:50:58;;;;;;;1.05;0.47;;;7.60;21.60;;;;;;20469974;28;20455;-44
2023/01/17 13:01:15;;;;;;;1.35;0.60;;;8.30;18.30;;;;;;20468996;28;20443;-44
2023/01/17 13:11:32;;;;;;;1.80;0.80;;;8.30;14.90;;;;;;20467765;28;20487;-43
2023/01/17 13:21:34;;;;;;;1.13;0.50;;;8.60;18.30;;;;;;20466285;28;20864;-44
2023/01/17 13:31:47;;;;;;;0.52;0.32;;;8.80;15.90;;;;;;20462905;28;20105;-44
2023/01/17 13:42:09;;;;;;;0.60;0.20;;;8.10;15.60;;;;;;20461641;28;20758;-44
2023/01/17 13:52:30;;;;;;;2.25;0.98;;;7.30;13.20;;;;;;20462633;28;20502;-44
2023/01/17 14:02:31;;;;;;;7.45;0.50;;;6.70;15.10;;;;;;20481584;28;22012;-44
2023/01/17 14:12:32;;;;;;;3.20;1.88;;;5.80;16.70;;;;;;20483749;28;20053;-44
2023/01/17 14:22:40;;;;;;;3.47;1.35;;;5.50;22.30;;;;;;20460587;28;20059;-44
2023/01/17 14:33:02;;;;;;;3.08;0.95;;;5.20;20.60;;;;;;20482914;28;20267;-44
2023/01/17 14:43:12;;;;;;;3.58;1.65;;;5.50;26.80;;;;;;20479503;28;20090;-44
2023/01/17 14:53:18;;;;;;;5.97;2.10;;;5.60;28.40;;;;;;20476586;28;20571;-44
2023/01/17 15:03:19;;;;;;;12.23;5.40;;;5.60;27.70;;;;;;20486006;28;20118;-44
2023/01/17 15:13:30;;;;;;;3.10;1.35;;;5.40;34.00;;;;;;20485080;28;20134;-44
2023/01/17 15:23:39;;;;;;;1.33;0.60;;;5.20;33.40;;;;;;20484188;28;21778;-44
2023/01/17 15:33:45;;;;;;;2.42;0.50;;;4.70;37.90;;;;;;20479052;28;20294;-44
2023/01/17 15:43:47;;;;;;;2.40;0.70;;;4.20;44.80;;;;;;20483159;28;20063;-44
2023/01/17 15:53:48;;;;;;;5.28;2.60;;;3.90;49.40;;;;;;20487369;28;20142;-43
2023/01/17 16:03:53;;;;;;;5.22;2.58;;;3.60;53.20;;;;;;20487492;28;20035;-44
2023/01/17 16:13:54;;;;;;;1.20;0.60;;;3.20;56.50;;;;;;20481841;28;20070;-44
2023/01/17 16:23:57;;;;;;;2.22;1.15;;;2.90;58.60;;;;;;20472823;28;20035;-44
2023/01/17 16:33:58;;;;;;;5.85;2.83;;;2.70;61.50;;;;;;20477234;28;20149;-44
2023/01/17 16:44:04;;;;;;;4.45;1.50;;;2.50;63.50;;;;;;20481002;28;20035;-44
2023/01/17 16:54:05;;;;;;;3.70;2.03;;;2.40;65.80;;;;;;20479553;28;20558;-44
2023/01/17 17:04:06;;;;;;;6.38;3.13;;;2.20;67.00;;;;;;20482059;28;20498;-44
2023/01/17 17:14:08;;;;;;;5.45;3.53;;;2.10;69.10;;;;;;20479420;28;20530;-44
2023/01/17 17:24:11;;;;;;;5.97;2.40;;;1.90;70.60;;;;;;20477444;28;20110;-44
2023/01/17 17:34:13;;;;;;;4.30;2.10;;;1.80;70.80;;;;;;20479310;28;20038;-44
2023/01/17 17:44:19;;;;;;;8.10;3.33;;;1.70;72.80;;;;;;20500217;28;20128;-44
2023/01/17 17:54:23;;;;;;;3.87;1.87;;;1.60;73.90;;;;;;20491921;28;20226;-44
2023/01/17 18:04:25;;;;;;;4.47;1.77;;;1.60;77.30;;;;;;20479735;28;20511;-44
2023/01/17 18:14:26;;;;;;;3.53;1.38;;;1.50;75.10;;;;;;20483992;28;20110;-44
2023/01/17 18:24:27;;;;;;;4.95;2.25;;;1.50;76.70;;;;;;20480084;28;20042;-44
2023/01/17 18:34:28;;;;;;;3.22;1.65;;;1.50;82.10;;;;;;20476778;28;20268;-44
2023/01/17 18:44:29;;;;;;;2.67;1.83;;;1.60;80.00;;;;;;20438386;28;20110;-44
2023/01/17 18:54:30;;;;;;;5.00;1.77;;;1.60;74.70;;;;;;20472598;28;20035;-44
2023/01/17 19:04:32;;;;;;;6.95;2.08;;;1.70;73.30;;;;;;20468511;28;20198;-45
2023/01/17 19:14:36;;;;;;;4.20;1.65;;;1.60;70.40;;;;;;20476863;28;20499;-44
2023/01/17 19:24:37;;;;;;;3.97;2.05;;;1.70;61.20;;;;;;20459762;28;20253;-44
2023/01/17 19:34:38;;;;;;;5.13;2.33;;;1.70;58.80;;;;;;20468497;28;20141;-44
2023/01/17 19:44:39;;;;;;;5.05;3.05;;;1.80;58.80;;;;;;20479604;28;20154;-45
2023/01/17 19:54:40;;;;;;;2.20;1.33;;;1.80;58.60;;;;;;20483482;28;20047;-44
2023/01/17 20:04:41;;;;;;;4.40;2.00;;;1.70;59.60;;;;;;20484841;28;20043;-44
2023/01/17 20:14:42;;;;;;;5.43;1.85;;;1.50;57.80;;;;;;20438927;28;20126;-44
2023/01/17 20:24:43;;;;;;;3.55;2.25;;;1.60;53.80;;;;;;20482827;28;20030;-44
2023/01/17 20:34:45;;;;;;;3.13;1.73;;;1.40;53.80;;;;;;20468530;28;20350;-44
2023/01/17 20:44:48;;;;;;;7.35;3.10;;;1.40;54.90;;;;;;20483266;28;20245;-44
2023/01/17 20:54:50;;;;;;;6.72;2.85;;;1.40;56.60;;;;;;20467312;28;20058;-44
2023/01/17 21:04:51;;;;;;;4.38;2.53;;;1.30;58.60;;;;;;20480655;28;20533;-44
2023/01/17 21:14:52;;;;;;;5.22;3.30;;;1.20;59.60;;;;;;20457235;28;20117;-44
2023/01/17 21:24:53;;;;;;;5.60;2.88;;;1.10;60.70;;;;;;20459317;28;20036;-44
2023/01/17 21:34:54;;;;;;;6.18;2.72;;;1.10;61.90;;;;;;20460556;28;20138;-44
2023/01/17 21:44:55;;;;;;;7.90;3.67;;;1.00;65.20;;;;;;20477886;28;20039;-44
2023/01/17 22:05:17;;;;;;;7.65;3.80;;;1.00;64.90;;;;;;20483227;28;20365;-44
2023/01/17 22:15:18;;;;;;;6.00;3.58;;;0.90;66.50;;;;;;20490505;28;20047;-44
2023/01/17 22:25:19;;;;;;;9.20;2.50;;;0.90;67.70;;;;;;20499220;28;20299;-44
2023/01/17 22:35:21;;;;;;;5.47;2.33;;;0.90;69.90;;;;;;20503352;28;20073;-44
2023/01/17 22:45:24;;;;;;;4.90;2.28;;;0.80;72.30;;;;;;20499399;28;20390;-44
2023/01/17 22:55:25;;;;;;;3.15;2.35;;;0.60;73.60;;;;;;20497531;28;20121;-44
2023/01/17 23:05:26;;;;;;;5.40;2.30;;;0.60;77.60;;;;;;20494966;28;20031;-44
2023/01/17 23:25:47;;;;;;;7.35;2.33;;;0.60;81.60;;;;;;20485399;28;20281;-44
2023/01/17 23:35:48;;;;;;;4.13;2.20;;;0.40;80.80;;;;;;20481607;28;20039;-44
2023/01/17 23:45:50;;;;;;;7.30;3.33;;;0.40;81.90;;;;;;20487255;28;20041;-44
2023/01/17 23:55:55;;;;;;;3.72;1.98;;;0.30;81.70;;;;;;20483300;28;20432;-44
